aviador You're here:

KLUX Decoded Metar

LAURENS CTY in SC, USA
Report Time2018-01-17 06:35:00
UTC Time2018-01-17 06:55:13
Flight Rules vfr VFR
Wind270° at 03 kt
W.Decomp.*RWY 26: 2.9 kt HW 0.7 kt RCW
W.Rank270° ranks 15
Current wind is below 270° avg. (6.2)
Visibility9999 m
Phenomena:N/A
Clouds:Overcast 048 Hf
Expected CloudBase > 2,400 ft AGL from Temp-Dew spread
Ceiling4,800 ft
Temp06°C (ISA -8)
Dew Point00°C (66% RH)
AAT3.0°C
QNH1024 hPa
Density Alt-502 ft
Elevation699 ft
Report Wrong Elevation
Raw Report
METAR KLUX 170635Z AUTO 27003KT 10SM OVC048 06/00 A3025 RMK AO2=

Extra information for KLUX:More info

Metar Taf Metar & Taf Last 4 Metars F.Rules Stats Wind Profile Meteogram Temp Stats Airport Information Weather charts Add Link Nearby VenuesMetar ALERT Operation Metar Decoded Social comments

AIRNAV info for KLUX